sensor_id;sensor_type;location;lat;lon;timestamp;pressure;altitude;pressure_sealevel;temperature;humidity
61742;BME280;47650;49.848;9.620;2022-10-18T00:01:50;100508.03;;;15.30;75.64
61742;BME280;47650;49.848;9.620;2022-10-18T00:04:16;100524.09;;;15.38;75.79
61742;BME280;47650;49.848;9.620;2022-10-18T00:06:41;100504.13;;;15.24;75.73
61742;BME280;47650;49.848;9.620;2022-10-18T00:09:07;100523.72;;;15.33;75.77
61742;BME280;47650;49.848;9.620;2022-10-18T00:11:32;100522.06;;;15.32;75.85
61742;BME280;47650;49.848;9.620;2022-10-18T00:13:58;100519.38;;;15.32;75.78
61742;BME280;47650;49.848;9.620;2022-10-18T00:16:24;100516.88;;;15.30;75.67
61742;BME280;47650;49.848;9.620;2022-10-18T00:18:51;100517.69;;;15.31;75.29
61742;BME280;47650;49.848;9.620;2022-10-18T00:21:19;100491.38;;;15.18;75.41
61742;BME280;47650;49.848;9.620;2022-10-18T00:23:46;100511.75;;;15.37;75.20
61742;BME280;47650;49.848;9.620;2022-10-18T00:26:18;100494.97;;;15.27;75.09
61742;BME280;47650;49.848;9.620;2022-10-18T00:28:44;100523.56;;;15.52;75.17
61742;BME280;47650;49.848;9.620;2022-10-18T00:31:36;100524.13;;;15.64;74.67
61742;BME280;47650;49.848;9.620;2022-10-18T00:34:09;100525.97;;;15.64;74.50
61742;BME280;47650;49.848;9.620;2022-10-18T00:36:34;100532.22;;;15.72;74.81
61742;BME280;47650;49.848;9.620;2022-10-18T00:39:05;100536.69;;;15.82;74.86
61742;BME280;47650;49.848;9.620;2022-10-18T00:41:33;100538.56;;;15.89;74.57
61742;BME280;47650;49.848;9.620;2022-10-18T00:46:46;100520.47;;;16.09;74.11
61742;BME280;47650;49.848;9.620;2022-10-18T00:49:16;100512.63;;;16.16;73.76
61742;BME280;47650;49.848;9.620;2022-10-18T00:51:46;100516.97;;;16.17;73.47
61742;BME280;47650;49.848;9.620;2022-10-18T00:54:15;100519.88;;;16.24;73.35
61742;BME280;47650;49.848;9.620;2022-10-18T00:56:43;100518.69;;;16.26;73.44
61742;BME280;47650;49.848;9.620;2022-10-18T00:59:11;100524.56;;;16.30;73.50
61742;BME280;47650;49.848;9.620;2022-10-18T01:01:38;100525.63;;;16.37;73.38
61742;BME280;47650;49.848;9.620;2022-10-18T01:04:03;100513.28;;;16.44;73.56
61742;BME280;47650;49.848;9.620;2022-10-18T01:06:30;100507.56;;;16.39;73.31
61742;BME280;47650;49.848;9.620;2022-10-18T01:09:04;100520.00;;;16.57;73.57
61742;BME280;47650;49.848;9.620;2022-10-18T01:17:03;100515.53;;;16.73;72.07
61742;BME280;47650;49.848;9.620;2022-10-18T01:22:35;100507.84;;;16.79;72.17
61742;BME280;47650;49.848;9.620;2022-10-18T01:28:56;100517.22;;;16.83;71.03
61742;BME280;47650;49.848;9.620;2022-10-18T01:31:33;100492.78;;;16.78;71.67
61742;BME280;47650;49.848;9.620;2022-10-18T01:34:05;100493.50;;;16.88;71.79
61742;BME280;47650;49.848;9.620;2022-10-18T01:36:45;100497.88;;;16.89;71.47
61742;BME280;47650;49.848;9.620;2022-10-18T01:39:15;100492.00;;;16.85;71.45
61742;BME280;47650;49.848;9.620;2022-10-18T01:41:44;100493.84;;;16.93;71.99
61742;BME280;47650;49.848;9.620;2022-10-18T01:44:18;100485.81;;;16.93;72.19
61742;BME280;47650;49.848;9.620;2022-10-18T01:46:46;100488.59;;;16.83;71.43
61742;BME280;47650;49.848;9.620;2022-10-18T01:49:12;100465.66;;;16.72;72.36
61742;BME280;47650;49.848;9.620;2022-10-18T01:51:38;100482.72;;;16.80;72.76
61742;BME280;47650;49.848;9.620;2022-10-18T01:54:05;100467.00;;;16.68;72.92
61742;BME280;47650;49.848;9.620;2022-10-18T01:56:54;100488.75;;;16.82;73.33
61742;BME280;47650;49.848;9.620;2022-10-18T01:59:29;100488.25;;;16.78;73.60
61742;BME280;47650;49.848;9.620;2022-10-18T02:07:41;100486.88;;;16.58;74.04
61742;BME280;47650;49.848;9.620;2022-10-18T02:12:42;100481.00;;;16.46;75.75
61742;BME280;47650;49.848;9.620;2022-10-18T02:15:12;100486.00;;;16.49;76.28
61742;BME280;47650;49.848;9.620;2022-10-18T02:17:39;100470.44;;;16.44;76.11
61742;BME280;47650;49.848;9.620;2022-10-18T02:20:07;100472.44;;;16.50;76.46
61742;BME280;47650;49.848;9.620;2022-10-18T02:22:34;100469.28;;;16.55;76.49
61742;BME280;47650;49.848;9.620;2022-10-18T02:25:04;100463.25;;;16.45;75.30
61742;BME280;47650;49.848;9.620;2022-10-18T02:27:31;100464.59;;;16.49;76.29
61742;BME280;47650;49.848;9.620;2022-10-18T02:29:57;100463.91;;;16.39;76.12
61742;BME280;47650;49.848;9.620;2022-10-18T02:32:48;100461.06;;;16.48;76.84
61742;BME280;47650;49.848;9.620;2022-10-18T02:35:24;100464.53;;;16.32;76.12
61742;BME280;47650;49.848;9.620;2022-10-18T02:37:51;100469.50;;;16.19;77.08
61742;BME280;47650;49.848;9.620;2022-10-18T02:40:23;100461.72;;;16.34;77.73
61742;BME280;47650;49.848;9.620;2022-10-18T02:42:53;100458.13;;;16.17;77.73
61742;BME280;47650;49.848;9.620;2022-10-18T02:45:19;100440.34;;;15.73;79.01
61742;BME280;47650;49.848;9.620;2022-10-18T02:47:44;100462.66;;;15.82;80.27
61742;BME280;47650;49.848;9.620;2022-10-18T02:50:09;100466.28;;;16.07;80.07
61742;BME280;47650;49.848;9.620;2022-10-18T02:52:35;100450.41;;;16.14;79.41
61742;BME280;47650;49.848;9.620;2022-10-18T02:55:00;100455.53;;;16.33;80.04
61742;BME280;47650;49.848;9.620;2022-10-18T02:57:27;100441.44;;;16.31;79.39
61742;BME280;47650;49.848;9.620;2022-10-18T02:59:53;100448.69;;;16.39;78.09
61742;BME280;47650;49.848;9.620;2022-10-18T03:02:18;100463.25;;;16.45;77.77
61742;BME280;47650;49.848;9.620;2022-10-18T03:04:43;100455.72;;;16.48;77.94
61742;BME280;47650;49.848;9.620;2022-10-18T03:07:09;100458.38;;;16.32;77.54
61742;BME280;47650;49.848;9.620;2022-10-18T03:09:34;100458.56;;;16.39;77.34
61742;BME280;47650;49.848;9.620;2022-10-18T03:12:00;100453.03;;;16.48;77.64
61742;BME280;47650;49.848;9.620;2022-10-18T03:14:26;100452.91;;;16.58;78.34
61742;BME280;47650;49.848;9.620;2022-10-18T03:16:51;100448.25;;;16.68;78.00
61742;BME280;47650;49.848;9.620;2022-10-18T03:19:17;100448.94;;;16.79;77.68
61742;BME280;47650;49.848;9.620;2022-10-18T03:21:42;100445.44;;;16.86;77.51
61742;BME280;47650;49.848;9.620;2022-10-18T03:24:07;100455.53;;;16.42;76.48
61742;BME280;47650;49.848;9.620;2022-10-18T03:26:33;100429.28;;;16.45;76.90
61742;BME280;47650;49.848;9.620;2022-10-18T03:28:58;100443.22;;;16.65;76.41
61742;BME280;47650;49.848;9.620;2022-10-18T03:31:25;100455.59;;;16.74;76.91
61742;BME280;47650;49.848;9.620;2022-10-18T03:33:53;100450.59;;;16.80;77.05
61742;BME280;47650;49.848;9.620;2022-10-18T03:36:19;100446.75;;;16.74;76.42
61742;BME280;47650;49.848;9.620;2022-10-18T03:38:44;100448.94;;;16.79;75.92
61742;BME280;47650;49.848;9.620;2022-10-18T03:41:09;100457.13;;;16.77;75.73
61742;BME280;47650;49.848;9.620;2022-10-18T03:43:35;100461.81;;;16.83;75.87
61742;BME280;47650;49.848;9.620;2022-10-18T03:46:01;100455.00;;;16.89;76.12
61742;BME280;47650;49.848;9.620;2022-10-18T03:48:27;100445.97;;;16.90;75.75
61742;BME280;47650;49.848;9.620;2022-10-18T03:50:52;100462.72;;;17.00;75.56
61742;BME280;47650;49.848;9.620;2022-10-18T03:53:19;100452.16;;;17.07;75.28
61742;BME280;47650;49.848;9.620;2022-10-18T03:55:49;100420.84;;;16.91;74.21
61742;BME280;47650;49.848;9.620;2022-10-18T03:58:16;100409.16;;;16.84;73.88
61742;BME280;47650;49.848;9.620;2022-10-18T04:00:42;100444.13;;;16.99;73.93
61742;BME280;47650;49.848;9.620;2022-10-18T04:03:07;100439.28;;;16.94;73.83
61742;BME280;47650;49.848;9.620;2022-10-18T04:05:32;100434.75;;;16.95;74.32
61742;BME280;47650;49.848;9.620;2022-10-18T04:08:04;100439.63;;;16.99;74.18
61742;BME280;47650;49.848;9.620;2022-10-18T04:10:29;100427.22;;;16.90;73.93
61742;BME280;47650;49.848;9.620;2022-10-18T04:12:55;100448.00;;;17.04;74.17
61742;BME280;47650;49.848;9.620;2022-10-18T04:15:20;100443.97;;;17.08;74.48
61742;BME280;47650;49.848;9.620;2022-10-18T04:17:45;100440.59;;;17.15;74.13
61742;BME280;47650;49.848;9.620;2022-10-18T04:20:13;100425.03;;;17.02;73.69
61742;BME280;47650;49.848;9.620;2022-10-18T04:22:38;100445.13;;;17.22;74.00
61742;BME280;47650;49.848;9.620;2022-10-18T04:25:04;100444.81;;;17.25;73.96
61742;BME280;47650;49.848;9.620;2022-10-18T04:27:29;100441.75;;;17.28;73.81
61742;BME280;47650;49.848;9.620;2022-10-18T04:29:56;100403.63;;;17.10;73.71
61742;BME280;47650;49.848;9.620;2022-10-18T04:32:21;100442.94;;;17.34;73.74
61742;BME280;47650;49.848;9.620;2022-10-18T04:34:47;100450.66;;;17.29;72.62
61742;BME280;47650;49.848;9.620;2022-10-18T04:37:12;100441.44;;;17.32;73.04
61742;BME280;47650;49.848;9.620;2022-10-18T04:39:37;100440.28;;;17.34;73.41
61742;BME280;47650;49.848;9.620;2022-10-18T04:42:04;100438.41;;;17.35;73.40
61742;BME280;47650;49.848;9.620;2022-10-18T04:44:35;100430.53;;;17.33;73.38
61742;BME280;47650;49.848;9.620;2022-10-18T04:47:00;100423.88;;;17.29;72.74
61742;BME280;47650;49.848;9.620;2022-10-18T04:49:25;100452.00;;;17.41;72.86
61742;BME280;47650;49.848;9.620;2022-10-18T04:51:51;100448.81;;;17.38;72.78
61742;BME280;47650;49.848;9.620;2022-10-18T04:54:17;100414.13;;;17.20;72.62
61742;BME280;47650;49.848;9.620;2022-10-18T04:56:42;100421.84;;;17.31;72.26
61742;BME280;47650;49.848;9.620;2022-10-18T04:59:08;100453.69;;;17.34;72.30
61742;BME280;47650;49.848;9.620;2022-10-18T05:01:39;100451.31;;;17.31;72.48
61742;BME280;47650;49.848;9.620;2022-10-18T05:04:10;100458.53;;;17.31;72.92
61742;BME280;47650;49.848;9.620;2022-10-18T05:06:35;100464.72;;;17.23;73.04
61742;BME280;47650;49.848;9.620;2022-10-18T05:09:01;100465.91;;;17.20;73.06
61742;BME280;47650;49.848;9.620;2022-10-18T05:11:27;100423.19;;;16.86;73.16
61742;BME280;47650;49.848;9.620;2022-10-18T05:13:52;100458.84;;;17.11;73.66
61742;BME280;47650;49.848;9.620;2022-10-18T05:16:18;100440.28;;;16.93;72.93
61742;BME280;47650;49.848;9.620;2022-10-18T05:18:44;100461.94;;;16.57;73.92
61742;BME280;47650;49.848;9.620;2022-10-18T05:21:11;100459.13;;;16.67;75.38
61742;BME280;47650;49.848;9.620;2022-10-18T05:23:37;100425.13;;;16.51;76.01
61742;BME280;47650;49.848;9.620;2022-10-18T05:26:04;100456.47;;;16.75;75.73
61742;BME280;47650;49.848;9.620;2022-10-18T05:28:31;100481.59;;;16.31;75.64
61742;BME280;47650;49.848;9.620;2022-10-18T05:31:04;100476.00;;;16.59;76.22
61742;BME280;47650;49.848;9.620;2022-10-18T05:33:32;100449.19;;;16.43;76.51
61742;BME280;47650;49.848;9.620;2022-10-18T05:35:58;100460.59;;;16.53;76.17
61742;BME280;47650;49.848;9.620;2022-10-18T05:38:24;100478.41;;;16.28;76.67
61742;BME280;47650;49.848;9.620;2022-10-18T05:40:49;100478.91;;;16.31;76.43
61742;BME280;47650;49.848;9.620;2022-10-18T05:43:15;100460.69;;;16.27;77.02
61742;BME280;47650;49.848;9.620;2022-10-18T05:45:49;100466.72;;;16.29;77.03
61742;BME280;47650;49.848;9.620;2022-10-18T05:48:17;100473.03;;;16.20;76.56
61742;BME280;47650;49.848;9.620;2022-10-18T05:50:43;100445.75;;;16.16;76.60
61742;BME280;47650;49.848;9.620;2022-10-18T05:53:09;100458.31;;;16.24;76.62
61742;BME280;47650;49.848;9.620;2022-10-18T05:55:34;100487.28;;;16.36;76.73
61742;BME280;47650;49.848;9.620;2022-10-18T05:58:00;100469.44;;;16.45;76.98
61742;BME280;47650;49.848;9.620;2022-10-18T06:00:25;100321.78;;;15.56;76.24
61742;BME280;47650;49.848;9.620;2022-10-18T06:02:51;100466.94;;;16.44;76.03
61742;BME280;47650;49.848;9.620;2022-10-18T06:05:17;100454.88;;;16.40;75.87
61742;BME280;47650;49.848;9.620;2022-10-18T06:07:42;100482.28;;;16.42;74.90
61742;BME280;47650;49.848;9.620;2022-10-18T06:10:08;100445.47;;;16.27;75.25
61742;BME280;47650;49.848;9.620;2022-10-18T06:12:33;100478.97;;;16.48;75.22
61742;BME280;47650;49.848;9.620;2022-10-18T06:14:58;100464.22;;;16.35;75.06
61742;BME280;47650;49.848;9.620;2022-10-18T06:17:31;100479.63;;;16.33;74.89
61742;BME280;47650;49.848;9.620;2022-10-18T06:19:57;100464.84;;;16.29;75.19
61742;BME280;47650;49.848;9.620;2022-10-18T06:22:23;100468.28;;;16.48;75.19
61742;BME280;47650;49.848;9.620;2022-10-18T06:24:48;100460.22;;;16.40;74.35
61742;BME280;47650;49.848;9.620;2022-10-18T06:27:14;100477.19;;;16.65;74.67
61742;BME280;47650;49.848;9.620;2022-10-18T06:29:40;100474.69;;;16.80;74.87
61742;BME280;47650;49.848;9.620;2022-10-18T06:32:06;100464.06;;;17.04;74.69
61742;BME280;47650;49.848;9.620;2022-10-18T06:34:32;100469.91;;;17.24;74.06
61742;BME280;47650;49.848;9.620;2022-10-18T06:36:58;100483.28;;;17.49;73.38
61742;BME280;47650;49.848;9.620;2022-10-18T06:39:23;100458.00;;;17.60;73.41
61742;BME280;47650;49.848;9.620;2022-10-18T06:41:49;100472.03;;;17.95;72.11
61742;BME280;47650;49.848;9.620;2022-10-18T06:44:14;100474.94;;;18.25;71.71
61742;BME280;47650;49.848;9.620;2022-10-18T06:46:43;100478.59;;;18.32;68.87
61742;BME280;47650;49.848;9.620;2022-10-18T06:49:08;100473.06;;;18.65;69.61
61742;BME280;47650;49.848;9.620;2022-10-18T06:51:35;100466.38;;;18.60;68.51
61742;BME280;47650;49.848;9.620;2022-10-18T06:54:02;100475.97;;;18.86;68.41
61742;BME280;47650;49.848;9.620;2022-10-18T06:56:28;100467.53;;;18.89;68.47
61742;BME280;47650;49.848;9.620;2022-10-18T06:58:54;100454.59;;;18.93;67.27
61742;BME280;47650;49.848;9.620;2022-10-18T07:01:21;100462.06;;;19.06;68.02
61742;BME280;47650;49.848;9.620;2022-10-18T07:03:51;100464.41;;;19.09;67.57
61742;BME280;47650;49.848;9.620;2022-10-18T07:06:26;100423.91;;;18.87;66.88
61742;BME280;47650;49.848;9.620;2022-10-18T07:08:53;100452.44;;;19.11;66.38
61742;BME280;47650;49.848;9.620;2022-10-18T07:11:21;100475.00;;;19.25;66.57
61742;BME280;47650;49.848;9.620;2022-10-18T07:13:49;100465.03;;;19.11;67.15
61742;BME280;47650;49.848;9.620;2022-10-18T07:16:16;100470.09;;;19.29;66.45
61742;BME280;47650;49.848;9.620;2022-10-18T07:18:44;100471.31;;;19.26;66.51
61742;BME280;47650;49.848;9.620;2022-10-18T07:21:12;100477.75;;;19.40;66.67
61742;BME280;47650;49.848;9.620;2022-10-18T07:23:39;100488.63;;;19.47;66.44
61742;BME280;47650;49.848;9.620;2022-10-18T07:26:18;100488.50;;;19.55;66.05
61742;BME280;47650;49.848;9.620;2022-10-18T07:28:47;100499.94;;;19.57;65.21
61742;BME280;47650;49.848;9.620;2022-10-18T07:31:12;100470.16;;;19.59;64.79
61742;BME280;47650;49.848;9.620;2022-10-18T07:33:38;100495.13;;;20.05;64.09
61742;BME280;47650;49.848;9.620;2022-10-18T07:36:09;100489.44;;;20.30;63.25
61742;BME280;47650;49.848;9.620;2022-10-18T07:38:35;100478.88;;;20.50;62.49
61742;BME280;47650;49.848;9.620;2022-10-18T07:41:03;100483.66;;;20.84;61.94
61742;BME280;47650;49.848;9.620;2022-10-18T07:43:30;100486.19;;;21.08;60.42
61742;BME280;47650;49.848;9.620;2022-10-18T07:45:58;100497.81;;;20.57;61.04
61742;BME280;47650;49.848;9.620;2022-10-18T07:48:25;100499.97;;;20.61;61.63
61742;BME280;47650;49.848;9.620;2022-10-18T07:50:52;100502.50;;;20.63;61.82
61742;BME280;47650;49.848;9.620;2022-10-18T07:53:18;100496.34;;;20.69;62.36
61742;BME280;47650;49.848;9.620;2022-10-18T07:55:43;100488.28;;;20.39;62.34
61742;BME280;47650;49.848;9.620;2022-10-18T07:58:09;100489.38;;;20.60;62.61
61742;BME280;47650;49.848;9.620;2022-10-18T08:00:34;100412.66;;;20.19;62.33
61742;BME280;47650;49.848;9.620;2022-10-18T08:03:00;100481.84;;;20.92;62.29
61742;BME280;47650;49.848;9.620;2022-10-18T08:05:27;100489.78;;;21.15;61.39
61742;BME280;47650;49.848;9.620;2022-10-18T08:07:54;100487.66;;;21.32;60.94
61742;BME280;47650;49.848;9.620;2022-10-18T08:10:20;100487.66;;;21.32;60.52
61742;BME280;47650;49.848;9.620;2022-10-18T08:12:49;100473.91;;;21.27;60.68
61742;BME280;47650;49.848;9.620;2022-10-18T08:15:15;100509.06;;;19.71;65.39
61742;BME280;47650;49.848;9.620;2022-10-18T08:17:41;100522.91;;;18.67;70.18
61742;BME280;47650;49.848;9.620;2022-10-18T08:20:08;100518.47;;;17.71;74.88
61742;BME280;47650;49.848;9.620;2022-10-18T08:22:33;100500.34;;;17.97;75.65
61742;BME280;47650;49.848;9.620;2022-10-18T08:24:58;100535.06;;;17.08;79.52
61742;BME280;47650;49.848;9.620;2022-10-18T08:27:24;100546.88;;;16.47;84.19
61742;BME280;47650;49.848;9.620;2022-10-18T08:29:51;100520.63;;;16.93;83.81
61742;BME280;47650;49.848;9.620;2022-10-18T08:32:17;100544.94;;;17.08;84.02
61742;BME280;47650;49.848;9.620;2022-10-18T08:34:43;100542.09;;;17.09;84.53
61742;BME280;47650;49.848;9.620;2022-10-18T08:37:08;100555.09;;;16.88;85.28
61742;BME280;47650;49.848;9.620;2022-10-18T08:39:34;100543.53;;;16.45;86.94
61742;BME280;47650;49.848;9.620;2022-10-18T08:44:44;100517.28;;;16.48;89.38
61742;BME280;47650;49.848;9.620;2022-10-18T08:47:14;100540.50;;;16.40;91.40
61742;BME280;47650;49.848;9.620;2022-10-18T08:49:45;100554.38;;;16.78;92.40
61742;BME280;47650;49.848;9.620;2022-10-18T08:52:27;100519.66;;;16.51;93.43
61742;BME280;47650;49.848;9.620;2022-10-18T08:55:12;100542.41;;;16.55;94.97
61742;BME280;47650;49.848;9.620;2022-10-18T08:57:40;100536.41;;;17.13;94.01
61742;BME280;47650;49.848;9.620;2022-10-18T09:00:22;100536.75;;;17.51;93.49
61742;BME280;47650;49.848;9.620;2022-10-18T09:03:02;100541.09;;;17.84;93.25
61742;BME280;47650;49.848;9.620;2022-10-18T09:06:04;100534.00;;;18.16;91.25
61742;BME280;47650;49.848;9.620;2022-10-18T09:09:03;100533.66;;;18.67;90.25
61742;BME280;47650;49.848;9.620;2022-10-18T09:11:51;100522.03;;;19.29;88.29
61742;BME280;47650;49.848;9.620;2022-10-18T09:17:21;100523.59;;;19.85;85.04
61742;BME280;47650;49.848;9.620;2022-10-18T09:20:02;100522.53;;;19.71;82.44
61742;BME280;47650;49.848;9.620;2022-10-18T09:25:35;100530.19;;;18.90;84.25
61742;BME280;47650;49.848;9.620;2022-10-18T09:30:44;100533.25;;;18.39;85.83
61742;BME280;47650;49.848;9.620;2022-10-18T09:36:03;100536.09;;;19.08;87.31
61742;BME280;47650;49.848;9.620;2022-10-18T09:38:41;100533.06;;;18.49;86.50
61742;BME280;47650;49.848;9.620;2022-10-18T09:41:12;100545.75;;;18.63;86.52
61742;BME280;47650;49.848;9.620;2022-10-18T09:46:05;100535.41;;;19.38;87.45
61742;BME280;47650;49.848;9.620;2022-10-18T09:48:44;100520.66;;;19.33;84.39
61742;BME280;47650;49.848;9.620;2022-10-18T09:51:17;100530.22;;;19.13;83.83
61742;BME280;47650;49.848;9.620;2022-10-18T09:56:25;100530.41;;;19.72;80.90
61742;BME280;47650;49.848;9.620;2022-10-18T09:58:54;100519.75;;;20.83;81.19
61742;BME280;47650;49.848;9.620;2022-10-18T10:01:24;100524.88;;;21.43;77.58
61742;BME280;47650;49.848;9.620;2022-10-18T10:03:52;100513.28;;;22.27;77.92
61742;BME280;47650;49.848;9.620;2022-10-18T10:06:27;100532.59;;;22.79;73.97
61742;BME280;47650;49.848;9.620;2022-10-18T10:09:05;100523.13;;;23.17;73.33
61742;BME280;47650;49.848;9.620;2022-10-18T10:11:37;100514.22;;;23.36;70.01
61742;BME280;47650;49.848;9.620;2022-10-18T10:14:14;100521.19;;;22.97;67.99
61742;BME280;47650;49.848;9.620;2022-10-18T10:16:48;100529.09;;;22.30;72.27
61742;BME280;47650;49.848;9.620;2022-10-18T10:19:29;100497.09;;;22.06;71.13
61742;BME280;47650;49.848;9.620;2022-10-18T10:22:11;100534.44;;;22.79;73.36
61742;BME280;47650;49.848;9.620;2022-10-18T10:24:49;100529.44;;;21.64;72.80
61742;BME280;47650;49.848;9.620;2022-10-18T10:27:23;100529.75;;;22.11;74.45
61742;BME280;47650;49.848;9.620;2022-10-18T10:29:55;100526.13;;;22.25;75.56
61742;BME280;47650;49.848;9.620;2022-10-18T10:32:23;100520.72;;;22.25;76.34
61742;BME280;47650;49.848;9.620;2022-10-18T10:34:49;100528.31;;;21.80;73.17
61742;BME280;47650;49.848;9.620;2022-10-18T10:37:35;100508.66;;;22.69;77.24
61742;BME280;47650;49.848;9.620;2022-10-18T10:42:29;100515.66;;;23.19;74.63
61742;BME280;47650;49.848;9.620;2022-10-18T10:44:57;100527.78;;;23.83;74.57
61742;BME280;47650;49.848;9.620;2022-10-18T10:47:30;100503.03;;;24.38;74.95
61742;BME280;47650;49.848;9.620;2022-10-18T10:49:56;100505.06;;;24.56;72.19
61742;BME280;47650;49.848;9.620;2022-10-18T10:52:24;100518.09;;;24.79;71.25
61742;BME280;47650;49.848;9.620;2022-10-18T10:54:54;100520.94;;;25.23;73.31
61742;BME280;47650;49.848;9.620;2022-10-18T10:57:23;100524.44;;;25.62;70.06
61742;BME280;47650;49.848;9.620;2022-10-18T10:59:52;100520.78;;;25.49;64.88
61742;BME280;47650;49.848;9.620;2022-10-18T11:02:30;100518.34;;;26.10;69.75
61742;BME280;47650;49.848;9.620;2022-10-18T11:05:15;100520.16;;;25.98;69.89
61742;BME280;47650;49.848;9.620;2022-10-18T11:07:44;100528.63;;;25.64;71.46
61742;BME280;47650;49.848;9.620;2022-10-18T11:15:34;100536.91;;;23.95;75.21
61742;BME280;47650;49.848;9.620;2022-10-18T11:20:47;100523.56;;;23.80;76.47
61742;BME280;47650;49.848;9.620;2022-10-18T11:23:14;100523.13;;;24.10;76.12
61742;BME280;47650;49.848;9.620;2022-10-18T11:42:27;100526.50;;;24.06;69.53
61742;BME280;47650;49.848;9.620;2022-10-18T11:48:27;100530.88;;;23.46;68.80
61742;BME280;47650;49.848;9.620;2022-10-18T11:51:03;100521.09;;;23.59;70.14
61742;BME280;47650;49.848;9.620;2022-10-18T11:56:35;100519.41;;;23.18;70.32
61742;BME280;47650;49.848;9.620;2022-10-18T12:01:38;100529.28;;;22.84;63.93
61742;BME280;47650;49.848;9.620;2022-10-18T12:06:40;100527.94;;;22.53;65.64
61742;BME280;47650;49.848;9.620;2022-10-18T12:09:40;100525.38;;;23.00;63.20
61742;BME280;47650;49.848;9.620;2022-10-18T12:12:29;100524.31;;;22.94;61.96
61742;BME280;47650;49.848;9.620;2022-10-18T12:14:58;100494.84;;;23.66;63.01
61742;BME280;47650;49.848;9.620;2022-10-18T12:17:41;100517.69;;;24.10;61.98
61742;BME280;47650;49.848;9.620;2022-10-18T12:20:18;100520.66;;;23.75;59.96
61742;BME280;47650;49.848;9.620;2022-10-18T12:22:54;100513.97;;;23.11;60.84
61742;BME280;47650;49.848;9.620;2022-10-18T12:25:22;100517.13;;;24.67;58.32
61742;BME280;47650;49.848;9.620;2022-10-18T12:27:55;100514.84;;;24.57;57.00
61742;BME280;47650;49.848;9.620;2022-10-18T12:30:38;100505.56;;;25.17;54.96
61742;BME280;47650;49.848;9.620;2022-10-18T12:33:15;100506.94;;;25.01;56.88
61742;BME280;47650;49.848;9.620;2022-10-18T12:38:47;100513.00;;;24.57;56.42
61742;BME280;47650;49.848;9.620;2022-10-18T12:41:22;100515.25;;;23.82;57.00
61742;BME280;47650;49.848;9.620;2022-10-18T12:44:38;100519.59;;;24.10;56.48
61742;BME280;47650;49.848;9.620;2022-10-18T12:46:50;100525.66;;;23.65;57.25
61742;BME280;47650;49.848;9.620;2022-10-18T12:51:53;100513.16;;;23.31;56.75
61742;BME280;47650;49.848;9.620;2022-10-18T12:54:33;100490.03;;;23.01;57.81
61742;BME280;47650;49.848;9.620;2022-10-18T12:57:01;100520.13;;;22.85;57.35
61742;BME280;47650;49.848;9.620;2022-10-18T13:09:34;100528.97;;;22.17;60.21
61742;BME280;47650;49.848;9.620;2022-10-18T13:12:35;100523.88;;;22.77;60.22
61742;BME280;47650;49.848;9.620;2022-10-18T13:15:21;100524.31;;;22.94;58.63
61742;BME280;47650;49.848;9.620;2022-10-18T13:20:37;100503.63;;;23.41;58.08
61742;BME280;47650;49.848;9.620;2022-10-18T13:26:21;100524.06;;;22.76;58.52
61742;BME280;47650;49.848;9.620;2022-10-18T13:31:56;100513.97;;;24.05;56.10
61742;BME280;47650;49.848;9.620;2022-10-18T13:34:29;100520.66;;;24.02;55.22
61742;BME280;47650;49.848;9.620;2022-10-18T13:37:05;100528.59;;;22.27;58.15
61742;BME280;47650;49.848;9.620;2022-10-18T13:39:43;100508.81;;;22.61;57.99
61742;BME280;47650;49.848;9.620;2022-10-18T13:44:42;100533.94;;;22.13;59.18
61742;BME280;47650;49.848;9.620;2022-10-18T14:03:23;100544.03;;;21.48;60.63
61742;BME280;47650;49.848;9.620;2022-10-18T14:06:17;100537.81;;;22.04;60.66
61742;BME280;47650;49.848;9.620;2022-10-18T14:11:47;100526.94;;;22.26;59.55
61742;BME280;47650;49.848;9.620;2022-10-18T14:14:21;100527.41;;;22.78;60.67
61742;BME280;47650;49.848;9.620;2022-10-18T14:17:14;100528.56;;;23.37;60.31
61742;BME280;47650;49.848;9.620;2022-10-18T14:22:37;100519.66;;;23.90;56.14
61742;BME280;47650;49.848;9.620;2022-10-18T14:25:18;100515.69;;;23.45;55.70
61742;BME280;47650;49.848;9.620;2022-10-18T14:27:43;100525.47;;;23.46;56.14
61742;BME280;47650;49.848;9.620;2022-10-18T14:30:19;100535.09;;;22.74;57.12
61742;BME280;47650;49.848;9.620;2022-10-18T14:32:47;100539.34;;;23.03;57.64
61742;BME280;47650;49.848;9.620;2022-10-18T14:37:52;100527.66;;;22.96;56.34
61742;BME280;47650;49.848;9.620;2022-10-18T14:40:44;100544.81;;;23.37;57.41
61742;BME280;47650;49.848;9.620;2022-10-18T14:43:13;100542.13;;;23.43;57.68
61742;BME280;47650;49.848;9.620;2022-10-18T14:45:46;100538.78;;;23.61;56.15
61742;BME280;47650;49.848;9.620;2022-10-18T14:48:21;100539.19;;;23.65;54.91
61742;BME280;47650;49.848;9.620;2022-10-18T14:50:56;100521.28;;;23.37;54.65
61742;BME280;47650;49.848;9.620;2022-10-18T14:53:26;100541.50;;;23.75;55.02
61742;BME280;47650;49.848;9.620;2022-10-18T14:55:57;100545.66;;;24.11;54.86
61742;BME280;47650;49.848;9.620;2022-10-18T14:58:28;100526.34;;;25.80;53.08
61742;BME280;47650;49.848;9.620;2022-10-18T15:00:55;100527.03;;;26.37;47.22
61742;BME280;47650;49.848;9.620;2022-10-18T15:03:21;100533.97;;;27.00;48.93
61742;BME280;47650;49.848;9.620;2022-10-18T15:05:58;100505.88;;;26.58;45.42
61742;BME280;47650;49.848;9.620;2022-10-18T15:08:33;100528.34;;;25.91;46.98
61742;BME280;47650;49.848;9.620;2022-10-18T15:11:00;100533.03;;;25.59;49.28
61742;BME280;47650;49.848;9.620;2022-10-18T15:13:25;100540.88;;;25.42;50.53
61742;BME280;47650;49.848;9.620;2022-10-18T15:15:52;100536.09;;;25.05;49.69
61742;BME280;47650;49.848;9.620;2022-10-18T15:18:24;100542.94;;;24.76;52.01